Time;durP1;ratioP1;P1;durP2;ratioP2;P2;SDS_P1;SDS_P2;PMS_P1;PMS_P2;Temp;Humidity;BMP_temperature;BMP_pressure;BME280_temperature;BME280_humidity;BME280_pressure;Samples;Min_cycle;Max_cycle;Signal;HPM_P1;HPM_P2
2022/07/30 00:00:24;;;;;;;15.87;12.77;;;;;;;;;;4976663;28;20242;-43
2022/07/30 00:02:50;;;;;;;17.53;14.23;;;;;;;;;;4972704;28;20275;-42
2022/07/30 00:05:16;;;;;;;16.13;12.87;;;;;;;;;;4974619;28;20190;-43
2022/07/30 00:07:42;;;;;;;15.27;13.73;;;;;;;;;;4978218;28;20173;-43
2022/07/30 00:10:08;;;;;;;15.33;13.83;;;;;;;;;;4976725;28;20255;-43
2022/07/30 00:12:35;;;;;;;16.37;14.63;;;;;;;;;;4972635;28;20252;-43
2022/07/30 00:15:01;;;;;;;14.10;12.60;;;;;;;;;;4974022;28;20313;-43
2022/07/30 00:17:27;;;;;;;15.60;13.80;;;;;;;;;;4975612;28;20428;-42
2022/07/30 00:19:53;;;;;;;21.17;18.07;;;;;;;;;;4977263;28;20533;-42
2022/07/30 00:22:19;;;;;;;20.87;18.67;;;;;;;;;;4972461;28;20188;-42
2022/07/30 00:24:45;;;;;;;21.07;18.80;;;;;;;;;;4978306;28;20428;-42
2022/07/30 00:27:13;;;;;;;20.27;18.17;;;;;;;;;;4973354;28;20176;-42
2022/07/30 00:29:39;;;;;;;20.00;17.93;;;;;;;;;;4974108;28;20277;-42
2022/07/30 00:32:05;;;;;;;19.43;17.43;;;;;;;;;;4977609;28;20447;-42
2022/07/30 00:34:31;;;;;;;21.83;19.63;;;;;;;;;;4979004;28;20349;-42
2022/07/30 00:36:57;;;;;;;20.70;18.53;;;;;;;;;;4975216;28;20185;-42
2022/07/30 00:39:23;;;;;;;19.50;17.10;;;;;;;;;;4971074;28;20690;-43
2022/07/30 00:41:53;;;;;;;21.37;17.93;;;;;;;;;;4976773;28;20169;-42
2022/07/30 00:44:19;;;;;;;21.63;17.90;;;;;;;;;;4977164;28;20185;-42
2022/07/30 00:46:45;;;;;;;23.00;20.23;;;;;;;;;;4975824;28;20263;-42
2022/07/30 00:49:12;;;;;;;21.70;18.97;;;;;;;;;;4974285;28;20262;-42
2022/07/30 00:51:38;;;;;;;23.33;19.97;;;;;;;;;;4989810;28;20184;-42
2022/07/30 00:54:04;;;;;;;19.80;17.77;;;;;;;;;;4981226;28;20193;-43
2022/07/30 00:56:30;;;;;;;20.27;18.17;;;;;;;;;;4982202;28;20967;-42
2022/07/30 00:58:56;;;;;;;19.50;17.43;;;;;;;;;;4983178;28;20177;-42
2022/07/30 01:01:22;;;;;;;23.70;20.70;;;;;;;;;;4983398;28;20204;-45
2022/07/30 01:03:48;;;;;;;21.77;18.27;;;;;;;;;;4984650;28;21001;-42
2022/07/30 01:06:14;;;;;;;24.90;22.30;;;;;;;;;;4981908;28;20482;-42
2022/07/30 01:08:42;;;;;;;21.83;19.50;;;;;;;;;;4980386;28;20545;-42
2022/07/30 01:11:08;;;;;;;20.23;18.10;;;;;;;;;;4984499;28;20668;-42
2022/07/30 01:13:34;;;;;;;19.90;17.70;;;;;;;;;;4985740;28;20224;-43
2022/07/30 01:16:01;;;;;;;20.40;18.30;;;;;;;;;;4982001;28;20185;-42
2022/07/30 01:19:47;;;;;;;22.10;19.40;;;;;;;;;;5010575;28;20213;-42
2022/07/30 01:21:17;;;;;;;25.13;21.27;;;;;;;;;;4978067;28;20177;-43
2022/07/30 01:23:45;;;;;;;19.63;17.50;;;;;;;;;;4981751;28;20207;-42
2022/07/30 01:26:14;;;;;;;23.80;21.07;;;;;;;;;;4980809;28;20478;-43
2022/07/30 01:28:41;;;;;;;22.17;19.97;;;;;;;;;;4977981;28;20480;-43
2022/07/30 01:31:08;;;;;;;26.73;24.03;;;;;;;;;;4975555;28;20217;-43
2022/07/30 01:33:36;;;;;;;26.20;23.50;;;;;;;;;;4980004;28;21044;-43
2022/07/30 01:36:03;;;;;;;27.57;24.40;;;;;;;;;;4981589;28;20176;-42
2022/07/30 01:38:30;;;;;;;26.50;23.57;;;;;;;;;;4977314;28;20189;-45
2022/07/30 01:40:57;;;;;;;33.67;29.97;;;;;;;;;;4980983;28;20632;-45
2022/07/30 01:43:24;;;;;;;30.13;26.97;;;;;;;;;;4981921;28;20180;-43
2022/07/30 01:45:51;;;;;;;30.37;27.27;;;;;;;;;;4984758;28;20515;-43
2022/07/30 01:48:19;;;;;;;28.17;25.37;;;;;;;;;;4983612;28;20543;-42
2022/07/30 01:50:45;;;;;;;30.47;27.27;;;;;;;;;;4985365;28;20351;-41
2022/07/30 01:53:15;;;;;;;34.90;31.13;;;;;;;;;;4988254;28;20443;-40
2022/07/30 01:55:42;;;;;;;33.43;29.93;;;;;;;;;;4985903;28;20181;-42
2022/07/30 01:58:09;;;;;;;30.83;27.63;;;;;;;;;;4980900;28;21122;-42
2022/07/30 02:00:37;;;;;;;32.20;28.63;;;;;;;;;;4980717;28;20904;-40
2022/07/30 02:03:04;;;;;;;33.00;29.50;;;;;;;;;;4987369;28;20623;-42
2022/07/30 02:05:32;;;;;;;37.53;32.93;;;;;;;;;;4986467;28;20185;-42
2022/07/30 02:08:00;;;;;;;35.33;31.37;;;;;;;;;;4982679;28;20185;-44
2022/07/30 02:10:30;;;;;;;35.23;31.60;;;;;;;;;;4982847;28;20189;-44
2022/07/30 02:12:59;;;;;;;33.00;28.43;;;;;;;;;;4982294;28;20294;-42
2022/07/30 02:15:25;;;;;;;34.53;30.83;;;;;;;;;;4986852;28;20728;-42
2022/07/30 02:18:14;;;;;;;32.33;29.07;;;;;;;;;;4983200;28;20281;-43
2022/07/30 02:20:42;;;;;;;36.07;31.47;;;;;;;;;;4983504;28;20200;-42
2022/07/30 02:23:10;;;;;;;30.90;27.63;;;;;;;;;;4986423;28;20201;-42
2022/07/30 02:25:38;;;;;;;36.53;32.63;;;;;;;;;;4987640;28;20303;-42
2022/07/30 02:28:06;;;;;;;31.10;27.87;;;;;;;;;;4982763;28;20185;-42
2022/07/30 02:30:34;;;;;;;36.47;31.00;;;;;;;;;;4983924;28;20542;-43
2022/07/30 02:33:05;;;;;;;35.00;31.23;;;;;;;;;;4987579;28;20413;-43
2022/07/30 02:35:32;;;;;;;32.27;28.77;;;;;;;;;;4982923;28;20176;-43
2022/07/30 02:37:59;;;;;;;33.83;30.37;;;;;;;;;;4982621;28;20287;-43
2022/07/30 02:40:26;;;;;;;36.27;32.37;;;;;;;;;;4980659;28;20621;-43
2022/07/30 02:42:53;;;;;;;38.97;34.00;;;;;;;;;;4986073;28;20305;-42
2022/07/30 02:45:19;;;;;;;41.17;36.77;;;;;;;;;;4987287;28;20707;-43
2022/07/30 02:47:47;;;;;;;43.07;36.43;;;;;;;;;;4983129;28;20491;-43
2022/07/30 02:50:15;;;;;;;43.40;37.27;;;;;;;;;;4980748;28;20677;-42
2022/07/30 02:52:42;;;;;;;47.60;41.20;;;;;;;;;;4985993;28;20200;-42
2022/07/30 02:55:09;;;;;;;58.07;48.50;;;;;;;;;;4986552;28;20170;-42
2022/07/30 02:57:35;;;;;;;61.97;49.93;;;;;;;;;;4986642;28;20640;-43
2022/07/30 03:00:04;;;;;;;54.77;46.80;;;;;;;;;;4985060;28;20205;-43
2022/07/30 03:02:31;;;;;;;62.20;50.63;;;;;;;;;;4988272;28;20459;-42
2022/07/30 03:04:58;;;;;;;60.23;49.23;;;;;;;;;;4986708;28;20177;-42
2022/07/30 03:07:25;;;;;;;61.13;49.67;;;;;;;;;;4982441;28;20275;-42
2022/07/30 03:09:54;;;;;;;56.33;47.03;;;;;;;;;;4983196;28;20253;-43
2022/07/30 03:12:21;;;;;;;68.17;53.67;;;;;;;;;;4987646;28;20213;-45
2022/07/30 03:14:47;;;;;;;55.07;47.03;;;;;;;;;;4981971;28;20403;-41
2022/07/30 03:17:15;;;;;;;72.43;55.13;;;;;;;;;;4978069;28;20284;-42
2022/07/30 03:19:41;;;;;;;54.67;45.77;;;;;;;;;;4982062;28;20173;-44
2022/07/30 03:22:08;;;;;;;56.63;43.67;;;;;;;;;;4989081;28;21029;-42
2022/07/30 03:24:35;;;;;;;57.87;46.70;;;;;;;;;;4981303;28;20188;-42
2022/07/30 03:27:02;;;;;;;52.93;44.97;;;;;;;;;;4983340;28;20177;-42
2022/07/30 03:29:29;;;;;;;56.03;46.10;;;;;;;;;;4983674;28;20189;-42
2022/07/30 03:31:55;;;;;;;52.67;44.07;;;;;;;;;;4984695;28;20780;-42
2022/07/30 03:34:22;;;;;;;52.00;44.60;;;;;;;;;;4982363;28;20204;-42
2022/07/30 03:36:49;;;;;;;50.37;42.33;;;;;;;;;;4983205;28;20185;-43
2022/07/30 03:39:15;;;;;;;55.53;46.97;;;;;;;;;;4983017;28;20602;-43
2022/07/30 03:41:41;;;;;;;56.30;46.47;;;;;;;;;;4983269;28;20787;-42
2022/07/30 03:44:08;;;;;;;47.10;41.40;;;;;;;;;;4981721;28;20176;-43
2022/07/30 03:46:35;;;;;;;47.60;42.17;;;;;;;;;;4981360;28;20774;-42
2022/07/30 03:49:02;;;;;;;44.03;39.30;;;;;;;;;;4984322;28;20472;-42
2022/07/30 03:51:28;;;;;;;42.97;38.10;;;;;;;;;;4979157;28;20177;-42
2022/07/30 03:53:54;;;;;;;42.60;38.00;;;;;;;;;;4982145;28;20478;-42
2022/07/30 03:56:21;;;;;;;42.80;38.20;;;;;;;;;;4984528;28;20195;-42
2022/07/30 03:58:47;;;;;;;39.33;34.83;;;;;;;;;;4977509;28;20764;-42
2022/07/30 04:01:13;;;;;;;38.13;34.00;;;;;;;;;;4980259;28;20178;-42
2022/07/30 04:03:39;;;;;;;41.13;35.70;;;;;;;;;;4982384;28;20259;-42
2022/07/30 04:06:05;;;;;;;41.73;33.03;;;;;;;;;;4984752;28;20525;-44
2022/07/30 04:08:31;;;;;;;35.40;31.37;;;;;;;;;;4979264;28;20694;-40
2022/07/30 04:10:57;;;;;;;38.00;33.83;;;;;;;;;;4984794;28;20724;-42
2022/07/30 04:13:24;;;;;;;37.40;33.30;;;;;;;;;;4983385;28;20206;-43
2022/07/30 04:16:02;;;;;;;40.63;30.40;;;;;;;;;;4982532;28;20224;-42
2022/07/30 04:18:31;;;;;;;41.10;32.43;;;;;;;;;;4983054;28;20992;-42
2022/07/30 04:20:57;;;;;;;33.07;29.07;;;;;;;;;;4979787;28;20173;-41
2022/07/30 04:23:23;;;;;;;48.30;35.07;;;;;;;;;;4978599;28;20243;-42
2022/07/30 04:25:50;;;;;;;45.47;31.30;;;;;;;;;;4981078;28;20499;-42
2022/07/30 04:28:16;;;;;;;38.87;31.17;;;;;;;;;;4984086;28;20816;-42
2022/07/30 04:30:43;;;;;;;31.27;27.40;;;;;;;;;;4976178;28;20287;-42
2022/07/30 04:33:09;;;;;;;42.63;32.73;;;;;;;;;;4981773;28;20588;-42
2022/07/30 04:35:35;;;;;;;36.83;28.63;;;;;;;;;;4981581;28;20682;-42
2022/07/30 04:38:02;;;;;;;31.03;27.67;;;;;;;;;;4985288;28;20169;-42
2022/07/30 04:40:30;;;;;;;32.33;28.80;;;;;;;;;;4979608;28;20243;-41
2022/07/30 04:42:56;;;;;;;30.57;27.27;;;;;;;;;;4982666;28;20500;-41
2022/07/30 04:45:23;;;;;;;30.30;27.10;;;;;;;;;;4986423;28;20246;-42
2022/07/30 04:47:52;;;;;;;33.83;27.93;;;;;;;;;;4983277;28;20181;-41
2022/07/30 04:50:20;;;;;;;33.27;29.67;;;;;;;;;;4979275;28;20204;-42
2022/07/30 04:52:47;;;;;;;32.70;28.57;;;;;;;;;;4981935;28;20533;-45
2022/07/30 04:55:13;;;;;;;29.33;26.20;;;;;;;;;;4983209;28;20215;-45
2022/07/30 04:57:41;;;;;;;35.40;31.47;;;;;;;;;;4983119;28;20279;-41
2022/07/30 05:00:08;;;;;;;35.67;31.83;;;;;;;;;;4981785;28;20613;-42
2022/07/30 05:02:35;;;;;;;37.63;32.47;;;;;;;;;;4982732;28;20484;-42
2022/07/30 05:05:01;;;;;;;36.67;32.77;;;;;;;;;;4982857;28;20183;-44
2022/07/30 05:07:28;;;;;;;35.53;31.73;;;;;;;;;;4981923;28;20739;-42
2022/07/30 05:09:54;;;;;;;36.60;32.83;;;;;;;;;;4978862;28;20815;-42
2022/07/30 05:12:20;;;;;;;39.20;34.83;;;;;;;;;;4984297;28;20899;-42
2022/07/30 05:14:46;;;;;;;37.13;32.70;;;;;;;;;;4985909;28;20332;-42
2022/07/30 05:17:12;;;;;;;39.40;34.67;;;;;;;;;;4978253;28;20173;-43
2022/07/30 05:19:38;;;;;;;44.00;38.13;;;;;;;;;;4984893;28;20168;-42
2022/07/30 05:22:04;;;;;;;39.97;35.53;;;;;;;;;;4976045;28;20270;-43
2022/07/30 05:24:30;;;;;;;40.93;35.97;;;;;;;;;;4978880;28;20909;-43
2022/07/30 05:26:56;;;;;;;42.90;37.87;;;;;;;;;;4985959;28;20188;-43
2022/07/30 05:29:23;;;;;;;41.10;36.60;;;;;;;;;;4981920;28;20434;-41
2022/07/30 05:31:49;;;;;;;46.77;39.07;;;;;;;;;;4980140;28;20276;-42
2022/07/30 05:34:15;;;;;;;44.17;36.40;;;;;;;;;;4974860;28;20216;-41
2022/07/30 05:36:43;;;;;;;48.70;38.87;;;;;;;;;;4984507;28;20454;-42
2022/07/30 05:39:09;;;;;;;42.87;37.43;;;;;;;;;;4983101;28;20185;-42
2022/07/30 05:41:35;;;;;;;47.13;36.53;;;;;;;;;;4981628;28;20204;-43
2022/07/30 05:44:01;;;;;;;41.70;35.93;;;;;;;;;;4988091;28;20247;-43
2022/07/30 05:46:29;;;;;;;40.57;34.70;;;;;;;;;;4980367;28;21692;-43
2022/07/30 05:48:55;;;;;;;47.00;39.00;;;;;;;;;;4983383;28;20197;-42
2022/07/30 05:51:21;;;;;;;43.73;37.30;;;;;;;;;;4986275;28;20267;-44
2022/07/30 05:53:47;;;;;;;40.63;35.80;;;;;;;;;;4978197;28;20782;-43
2022/07/30 05:56:14;;;;;;;37.87;33.80;;;;;;;;;;4980343;28;20279;-42
2022/07/30 05:58:40;;;;;;;40.33;34.90;;;;;;;;;;4985408;28;20613;-43
2022/07/30 06:01:06;;;;;;;40.13;35.10;;;;;;;;;;4983101;28;20169;-43
2022/07/30 06:03:33;;;;;;;41.03;33.60;;;;;;;;;;4981083;28;20192;-43
2022/07/30 06:05:59;;;;;;;41.07;34.30;;;;;;;;;;4985090;28;20725;-42
2022/07/30 06:08:25;;;;;;;38.07;32.53;;;;;;;;;;4980902;28;20205;-43
2022/07/30 06:10:51;;;;;;;43.10;35.53;;;;;;;;;;4983550;28;20384;-43
2022/07/30 06:13:17;;;;;;;39.70;33.43;;;;;;;;;;4986760;28;20610;-43
2022/07/30 06:15:44;;;;;;;39.73;35.40;;;;;;;;;;4982103;28;20192;-45
2022/07/30 06:18:10;;;;;;;39.43;33.03;;;;;;;;;;4984798;28;20173;-41
2022/07/30 06:20:36;;;;;;;37.97;31.50;;;;;;;;;;4987166;28;20248;-42
2022/07/30 06:23:02;;;;;;;37.10;30.70;;;;;;;;;;4987793;28;20184;-42
2022/07/30 06:25:28;;;;;;;39.00;31.13;;;;;;;;;;4980871;28;20624;-43
2022/07/30 06:27:54;;;;;;;38.33;31.63;;;;;;;;;;4988862;28;20617;-43
2022/07/30 06:30:20;;;;;;;34.97;28.23;;;;;;;;;;4986506;28;20189;-45
2022/07/30 06:32:46;;;;;;;34.27;29.07;;;;;;;;;;4985927;28;20207;-42
2022/07/30 06:35:12;;;;;;;35.47;29.40;;;;;;;;;;4986585;28;20325;-42
2022/07/30 06:37:38;;;;;;;33.03;27.00;;;;;;;;;;4988652;28;20553;-41
2022/07/30 06:40:05;;;;;;;31.57;26.23;;;;;;;;;;4985824;28;20173;-42
2022/07/30 06:42:31;;;;;;;30.93;26.00;;;;;;;;;;4989478;28;20981;-42
2022/07/30 06:44:57;;;;;;;29.03;24.70;;;;;;;;;;4993128;28;20189;-42
2022/07/30 06:47:27;;;;;;;28.07;23.63;;;;;;;;;;4988663;28;20204;-43
2022/07/30 06:49:53;;;;;;;28.00;21.40;;;;;;;;;;4985730;28;20582;-43
2022/07/30 06:52:20;;;;;;;21.00;18.70;;;;;;;;;;4987195;28;20181;-43
2022/07/30 06:54:47;;;;;;;25.23;20.57;;;;;;;;;;4990341;28;20179;-42
2022/07/30 06:57:13;;;;;;;23.37;20.20;;;;;;;;;;4993109;28;20698;-43
2022/07/30 06:59:39;;;;;;;22.93;19.40;;;;;;;;;;4988956;28;20664;-43
2022/07/30 07:02:05;;;;;;;20.67;17.17;;;;;;;;;;4986382;28;20173;-43
2022/07/30 07:04:31;;;;;;;18.43;16.10;;;;;;;;;;4987381;28;20701;-43
2022/07/30 07:06:57;;;;;;;18.67;16.47;;;;;;;;;;4991535;28;20669;-42
2022/07/30 07:09:24;;;;;;;17.57;15.53;;;;;;;;;;4986698;28;20192;-43
2022/07/30 07:11:50;;;;;;;17.63;15.27;;;;;;;;;;4987059;28;20795;-42
2022/07/30 07:14:16;;;;;;;17.37;14.67;;;;;;;;;;4985330;28;20291;-43
2022/07/30 07:16:42;;;;;;;17.67;15.43;;;;;;;;;;4989074;28;20671;-43
2022/07/30 07:19:09;;;;;;;17.23;14.93;;;;;;;;;;4989093;28;20184;-42
2022/07/30 07:21:35;;;;;;;16.17;14.47;;;;;;;;;;4981464;28;20180;-42
2022/07/30 07:24:01;;;;;;;15.13;13.43;;;;;;;;;;4984332;28;20173;-44
2022/07/30 07:26:28;;;;;;;16.00;11.77;;;;;;;;;;4988660;28;20344;-43
2022/07/30 07:28:54;;;;;;;15.80;13.43;;;;;;;;;;4987278;28;20193;-43
2022/07/30 07:31:21;;;;;;;15.33;12.93;;;;;;;;;;4985171;28;20491;-43
2022/07/30 07:33:47;;;;;;;15.20;12.83;;;;;;;;;;4984952;28;20213;-44
2022/07/30 07:36:14;;;;;;;15.13;13.53;;;;;;;;;;4989156;28;20215;-44
2022/07/30 07:38:40;;;;;;;17.00;14.13;;;;;;;;;;4986981;28;20185;-44
2022/07/30 07:41:06;;;;;;;15.33;12.87;;;;;;;;;;4985821;28;20590;-45
2022/07/30 07:43:32;;;;;;;15.57;12.60;;;;;;;;;;4987185;28;20719;-45
2022/07/30 07:45:58;;;;;;;16.77;14.07;;;;;;;;;;4985182;28;20526;-43
2022/07/30 07:48:24;;;;;;;16.77;13.83;;;;;;;;;;4983566;28;20185;-42
2022/07/30 07:50:50;;;;;;;14.63;12.23;;;;;;;;;;4986633;28;20180;-43
2022/07/30 07:53:17;;;;;;;15.40;13.30;;;;;;;;;;4985884;28;20449;-44
2022/07/30 07:55:43;;;;;;;13.83;12.43;;;;;;;;;;4982453;28;20180;-43
2022/07/30 07:58:12;;;;;;;13.07;11.53;;;;;;;;;;4990076;28;20566;-43
2022/07/30 08:00:38;;;;;;;12.20;10.90;;;;;;;;;;4983256;28;21006;-43
2022/07/30 08:03:04;;;;;;;10.00;8.97;;;;;;;;;;4981531;28;20181;-41
2022/07/30 08:05:31;;;;;;;16.07;13.80;;;;;;;;;;4988189;28;20184;-42
2022/07/30 08:07:57;;;;;;;13.40;12.00;;;;;;;;;;4986954;28;20195;-42
2022/07/30 08:10:23;;;;;;;17.83;13.50;;;;;;;;;;4985310;28;20518;-42
2022/07/30 08:12:49;;;;;;;13.97;11.33;;;;;;;;;;4986662;28;20653;-43
2022/07/30 08:15:15;;;;;;;12.90;11.60;;;;;;;;;;4986746;28;20553;-43
2022/07/30 08:17:42;;;;;;;11.97;10.33;;;;;;;;;;4983535;28;21016;-43
2022/07/30 08:20:08;;;;;;;11.70;10.50;;;;;;;;;;4986368;28;20904;-42
2022/07/30 08:22:34;;;;;;;11.03;9.40;;;;;;;;;;5000121;28;20597;-43
2022/07/30 08:25:01;;;;;;;12.63;8.43;;;;;;;;;;4987615;28;20495;-43
2022/07/30 08:27:27;;;;;;;10.20;8.60;;;;;;;;;;4987804;28;20181;-43
2022/07/30 08:29:53;;;;;;;10.53;9.43;;;;;;;;;;4985974;28;20181;-43
2022/07/30 08:32:19;;;;;;;11.80;10.27;;;;;;;;;;4980785;28;20188;-45
2022/07/30 08:34:45;;;;;;;11.10;9.70;;;;;;;;;;4984276;28;20233;-41
2022/07/30 08:37:12;;;;;;;14.23;10.43;;;;;;;;;;4982589;28;20541;-43
2022/07/30 08:39:38;;;;;;;10.00;9.00;;;;;;;;;;4982029;28;20188;-43
2022/07/30 08:42:04;;;;;;;10.53;8.10;;;;;;;;;;4979700;28;20252;-43
2022/07/30 08:44:30;;;;;;;13.60;11.70;;;;;;;;;;4979704;28;21200;-43
2022/07/30 08:47:11;;;;;;;;;;;;;;;;;;;;;
2022/07/30 08:49:37;;;;;;;11.70;10.50;;;;;;;;;;4981146;28;20211;-43
2022/07/30 08:52:07;;;;;;;11.07;9.43;;;;;;;;;;4986526;28;20371;-43
2022/07/30 08:54:33;;;;;;;12.37;10.27;;;;;;;;;;4983360;28;20487;-43
2022/07/30 08:56:59;;;;;;;11.10;9.30;;;;;;;;;;4979505;28;20254;-43
2022/07/30 08:59:26;;;;;;;11.47;10.03;;;;;;;;;;4985744;28;20381;-42
2022/07/30 09:01:52;;;;;;;8.70;7.60;;;;;;;;;;4978119;28;20166;-43
2022/07/30 09:04:18;;;;;;;11.27;10.03;;;;;;;;;;4977655;28;21192;-43
2022/07/30 09:06:44;;;;;;;9.90;8.90;;;;;;;;;;4985564;28;20215;-43
2022/07/30 09:09:10;;;;;;;8.87;7.97;;;;;;;;;;4986828;28;20905;-43
2022/07/30 09:11:37;;;;;;;11.97;10.73;;;;;;;;;;4984800;28;20185;-42
2022/07/30 09:14:09;;;;;;;13.53;11.83;;;;;;;;;;4986177;28;20617;-43
2022/07/30 09:16:36;;;;;;;13.20;10.33;;;;;;;;;;4987122;28;20789;-44
2022/07/30 09:19:11;;;;;;;10.97;9.57;;;;;;;;;;4990601;28;20326;-43
2022/07/30 09:21:37;;;;;;;11.10;8.47;;;;;;;;;;4986124;28;20173;-43
2022/07/30 09:24:04;;;;;;;10.87;9.40;;;;;;;;;;4986235;28;21005;-43
2022/07/30 09:26:34;;;;;;;9.83;8.83;;;;;;;;;;4985080;28;20173;-43
2022/07/30 09:29:16;;;;;;;11.50;10.10;;;;;;;;;;4985310;28;20421;-43
2022/07/30 09:32:01;;;;;;;12.60;10.90;;;;;;;;;;4983816;28;20921;-44
2022/07/30 09:34:28;;;;;;;11.87;10.40;;;;;;;;;;4983805;28;20779;-44
2022/07/30 09:36:56;;;;;;;10.57;9.50;;;;;;;;;;4984995;28;20177;-45
2022/07/30 09:39:40;;;;;;;7.27;6.57;;;;;;;;;;4985428;28;20188;-45
2022/07/30 09:42:20;;;;;;;9.90;8.70;;;;;;;;;;4969782;28;20294;-43
2022/07/30 09:44:46;;;;;;;12.03;9.57;;;;;;;;;;4953595;28;20324;-42
2022/07/30 09:47:32;;;;;;;10.50;9.30;;;;;;;;;;4883608;28;20209;-43
2022/07/30 09:50:05;;;;;;;9.77;8.70;;;;;;;;;;4977051;28;20217;-43
2022/07/30 09:52:31;;;;;;;9.77;8.77;;;;;;;;;;4981176;28;20204;-43
2022/07/30 09:54:57;;;;;;;11.73;9.53;;;;;;;;;;4981161;28;20400;-43
2022/07/30 09:57:23;;;;;;;9.33;8.33;;;;;;;;;;4979717;28;20196;-42
2022/07/30 09:59:49;;;;;;;9.47;7.10;;;;;;;;;;4983786;28;20812;-43
2022/07/30 10:02:16;;;;;;;9.13;8.20;;;;;;;;;;4974055;28;20281;-43
2022/07/30 10:04:42;;;;;;;10.17;8.07;;;;;;;;;;4984340;28;20250;-42
2022/07/30 10:07:17;;;;;;;11.77;9.60;;;;;;;;;;4985496;28;20565;-42
2022/07/30 10:09:44;;;;;;;9.63;8.70;;;;;;;;;;4988503;28;20422;-42
2022/07/30 10:12:10;;;;;;;9.00;8.10;;;;;;;;;;4986208;28;20224;-43
2022/07/30 10:14:37;;;;;;;9.50;8.60;;;;;;;;;;4986235;28;20193;-43
2022/07/30 10:17:04;;;;;;;10.10;9.10;;;;;;;;;;4987118;28;20499;-44
2022/07/30 10:19:32;;;;;;;8.63;7.67;;;;;;;;;;4988843;28;20214;-43
2022/07/30 10:21:59;;;;;;;8.33;6.57;;;;;;;;;;4985434;28;20180;-41
2022/07/30 10:24:25;;;;;;;7.80;7.00;;;;;;;;;;4986590;28;20169;-43
2022/07/30 10:26:52;;;;;;;9.87;7.20;;;;;;;;;;4986513;28;20610;-43
2022/07/30 10:29:18;;;;;;;7.97;7.00;;;;;;;;;;4985718;28;20188;-43
2022/07/30 10:31:48;;;;;;;7.60;6.80;;;;;;;;;;4983810;28;20613;-42
2022/07/30 10:34:15;;;;;;;6.30;4.93;;;;;;;;;;4987123;28;20316;-43
2022/07/30 10:36:46;;;;;;;9.80;8.20;;;;;;;;;;4978524;28;20201;-43
2022/07/30 10:39:15;;;;;;;9.27;8.30;;;;;;;;;;4981547;28;20694;-43
2022/07/30 10:41:56;;;;;;;8.33;7.40;;;;;;;;;;4985998;28;21182;-42
2022/07/30 10:44:28;;;;;;;8.03;6.60;;;;;;;;;;4986701;28;20173;-43
2022/07/30 10:47:01;;;;;;;7.40;6.20;;;;;;;;;;4989828;28;20451;-43
2022/07/30 10:49:28;;;;;;;7.60;6.80;;;;;;;;;;4985829;28;20273;-43
2022/07/30 10:51:54;;;;;;;7.30;6.60;;;;;;;;;;4991422;28;21090;-41
2022/07/30 10:54:40;;;;;;;8.53;6.57;;;;;;;;;;4987094;28;20525;-43
2022/07/30 10:57:17;;;;;;;6.77;5.80;;;;;;;;;;4987858;28;20452;-43
2022/07/30 10:59:49;;;;;;;9.50;6.60;;;;;;;;;;4986068;28;20195;-42
2022/07/30 11:02:16;;;;;;;7.47;6.43;;;;;;;;;;4985220;28;20184;-43
2022/07/30 11:04:42;;;;;;;6.67;6.03;;;;;;;;;;4990042;28;20628;-43
2022/07/30 11:07:21;;;;;;;6.90;6.20;;;;;;;;;;4987274;28;20220;-43
2022/07/30 11:09:47;;;;;;;8.60;6.97;;;;;;;;;;4983162;28;20204;-44
2022/07/30 11:12:13;;;;;;;8.07;6.93;;;;;;;;;;4985795;28;20196;-42
2022/07/30 11:14:45;;;;;;;8.30;7.07;;;;;;;;;;4986514;28;20201;-43
2022/07/30 11:17:16;;;;;;;9.23;7.60;;;;;;;;;;4984395;28;20185;-43
2022/07/30 11:20:01;;;;;;;8.73;7.10;;;;;;;;;;4989910;28;20181;-45
2022/07/30 11:22:27;;;;;;;11.73;10.33;;;;;;;;;;4987853;28;20314;-45
2022/07/30 11:24:54;;;;;;;9.70;8.10;;;;;;;;;;4987370;28;20188;-43
2022/07/30 11:27:39;;;;;;;10.57;8.27;;;;;;;;;;4991188;28;20390;-43
2022/07/30 11:30:21;;;;;;;10.60;7.60;;;;;;;;;;4990249;28;20178;-43
2022/07/30 11:32:54;;;;;;;10.10;8.60;;;;;;;;;;4987444;28;20205;-45
2022/07/30 11:35:24;;;;;;;7.83;6.27;;;;;;;;;;4991017;28;20169;-43
2022/07/30 11:37:56;;;;;;;9.10;7.50;;;;;;;;;;4987923;28;20769;-46
2022/07/30 11:40:24;;;;;;;11.77;8.57;;;;;;;;;;4987167;28;20295;-43
2022/07/30 11:42:51;;;;;;;10.17;8.83;;;;;;;;;;4990030;28;20181;-43
2022/07/30 11:45:17;;;;;;;9.87;8.60;;;;;;;;;;4986909;28;20258;-42
2022/07/30 11:47:44;;;;;;;7.87;6.93;;;;;;;;;;4989212;28;20194;-43
2022/07/30 11:50:20;;;;;;;7.17;6.40;;;;;;;;;;4985079;28;20582;-43
2022/07/30 11:52:51;;;;;;;8.57;7.27;;;;;;;;;;4987297;28;20383;-43
2022/07/30 11:55:24;;;;;;;6.67;5.80;;;;;;;;;;4986364;28;20339;-43
2022/07/30 11:57:50;;;;;;;8.30;7.50;;;;;;;;;;4986035;28;20176;-45
2022/07/30 12:00:19;;;;;;;6.87;6.17;;;;;;;;;;4989518;28;20243;-43
2022/07/30 12:02:47;;;;;;;6.77;5.60;;;;;;;;;;4987645;28;20185;-43
2022/07/30 12:05:13;;;;;;;6.10;5.50;;;;;;;;;;4983770;28;20606;-43
2022/07/30 12:07:39;;;;;;;5.87;5.30;;;;;;;;;;4988138;28;20272;-43
2022/07/30 12:10:12;;;;;;;6.07;5.47;;;;;;;;;;4984310;28;20987;-45
2022/07/30 12:12:38;;;;;;;5.93;5.40;;;;;;;;;;4987060;28;20569;-44
2022/07/30 12:15:04;;;;;;;5.87;5.10;;;;;;;;;;4985858;28;20605;-45
2022/07/30 12:17:41;;;;;;;5.47;4.80;;;;;;;;;;4984382;28;20201;-43
2022/07/30 12:20:15;;;;;;;5.90;5.13;;;;;;;;;;4986240;28;20180;-43
2022/07/30 12:22:41;;;;;;;4.93;4.43;;;;;;;;;;4987777;28;20173;-43
2022/07/30 12:25:10;;;;;;;5.53;4.97;;;;;;;;;;4983634;28;20180;-43
2022/07/30 12:27:36;;;;;;;5.40;4.63;;;;;;;;;;4988476;28;20513;-43
2022/07/30 12:30:07;;;;;;;6.87;4.97;;;;;;;;;;4985907;28;20528;-45
2022/07/30 12:32:34;;;;;;;4.50;4.00;;;;;;;;;;4991164;28;20494;-43
2022/07/30 12:35:00;;;;;;;5.13;4.20;;;;;;;;;;4988241;28;20913;-43
2022/07/30 12:37:26;;;;;;;6.07;4.87;;;;;;;;;;4987028;28;20652;-43
2022/07/30 12:40:05;;;;;;;5.27;3.97;;;;;;;;;;4987366;28;20169;-43
2022/07/30 12:42:31;;;;;;;5.10;4.60;;;;;;;;;;4987330;28;20184;-44
2022/07/30 12:44:58;;;;;;;5.27;4.53;;;;;;;;;;4990813;28;20181;-43
2022/07/30 12:47:27;;;;;;;4.57;4.10;;;;;;;;;;4988597;28;20594;-43
2022/07/30 12:49:54;;;;;;;5.00;4.23;;;;;;;;;;4992239;28;20169;-43
2022/07/30 12:52:23;;;;;;;5.27;4.20;;;;;;;;;;4993166;28;20208;-43
2022/07/30 12:55:16;;;;;;;5.67;4.23;;;;;;;;;;4988426;28;21113;-43
2022/07/30 12:57:51;;;;;;;5.23;3.83;;;;;;;;;;4992598;28;20291;-43
2022/07/30 13:00:17;;;;;;;4.60;4.20;;;;;;;;;;4992667;28;20173;-43
2022/07/30 13:02:43;;;;;;;6.03;4.40;;;;;;;;;;4990587;28;20220;-43
2022/07/30 13:05:09;;;;;;;3.93;3.60;;;;;;;;;;4990768;28;20180;-44
2022/07/30 13:07:35;;;;;;;4.57;4.17;;;;;;;;;;4992386;28;20177;-43
2022/07/30 13:10:13;;;;;;;5.70;3.83;;;;;;;;;;4992561;28;20181;-43
2022/07/30 13:12:39;;;;;;;3.50;3.20;;;;;;;;;;4987613;28;20175;-43
2022/07/30 13:15:06;;;;;;;3.90;3.07;;;;;;;;;;4993562;28;20206;-44
2022/07/30 13:17:32;;;;;;;3.93;3.30;;;;;;;;;;4990818;28;20832;-43
2022/07/30 13:19:59;;;;;;;4.10;3.73;;;;;;;;;;4987528;28;20174;-44
2022/07/30 13:22:25;;;;;;;4.00;3.60;;;;;;;;;;4992261;28;20182;-44
2022/07/30 13:24:51;;;;;;;3.33;3.03;;;;;;;;;;4992357;28;20176;-43
2022/07/30 13:27:17;;;;;;;3.97;3.33;;;;;;;;;;4989963;28;20177;-43
2022/07/30 13:29:43;;;;;;;3.30;3.00;;;;;;;;;;4987702;28;20187;-43
2022/07/30 13:32:10;;;;;;;3.80;3.40;;;;;;;;;;4991846;28;20184;-44
2022/07/30 13:34:36;;;;;;;3.57;2.77;;;;;;;;;;4987898;28;20239;-43
2022/07/30 13:37:02;;;;;;;4.83;3.00;;;;;;;;;;4989793;28;21029;-44
2022/07/30 13:39:28;;;;;;;3.23;2.60;;;;;;;;;;4992927;28;20194;-44
2022/07/30 13:41:54;;;;;;;2.83;2.40;;;;;;;;;;4990122;28;20298;-42
2022/07/30 13:44:20;;;;;;;2.60;2.17;;;;;;;;;;4991072;28;20194;-44
2022/07/30 13:46:46;;;;;;;3.63;2.20;;;;;;;;;;4995342;28;20193;-44
2022/07/30 13:49:12;;;;;;;1.93;1.77;;;;;;;;;;4995727;28;21000;-43
2022/07/30 13:51:39;;;;;;;3.13;2.13;;;;;;;;;;4993906;28;20806;-44
2022/07/30 13:54:06;;;;;;;2.80;2.10;;;;;;;;;;4990342;28;20203;-44
2022/07/30 13:56:32;;;;;;;2.23;2.00;;;;;;;;;;4991027;28;20188;-43
2022/07/30 13:58:59;;;;;;;3.40;2.20;;;;;;;;;;4994475;28;20176;-43
2022/07/30 14:01:25;;;;;;;2.83;2.33;;;;;;;;;;4988197;28;20180;-44
2022/07/30 14:03:51;;;;;;;2.60;2.30;;;;;;;;;;4994839;28;20195;-43
2022/07/30 14:06:18;;;;;;;3.13;2.83;;;;;;;;;;4995970;28;20418;-43
2022/07/30 14:08:44;;;;;;;3.37;3.07;;;;;;;;;;4994674;28;20292;-43
2022/07/30 14:11:10;;;;;;;3.13;2.83;;;;;;;;;;4993479;28;21093;-42
2022/07/30 14:13:37;;;;;;;2.77;2.57;;;;;;;;;;4993175;28;20203;-43
2022/07/30 14:16:03;;;;;;;2.63;2.43;;;;;;;;;;4976295;28;20213;-42
2022/07/30 14:18:29;;;;;;;3.40;2.57;;;;;;;;;;4984009;28;20189;-43
2022/07/30 14:20:55;;;;;;;3.90;2.77;;;;;;;;;;4977218;28;20931;-42
2022/07/30 14:23:21;;;;;;;3.93;2.53;;;;;;;;;;4980624;28;20252;-43
2022/07/30 14:25:47;;;;;;;2.93;2.63;;;;;;;;;;4994920;28;20185;-42
2022/07/30 14:28:14;;;;;;;7.37;2.60;;;;;;;;;;4978819;28;20185;-43